sensor_id;sensor_type;location;lat;lon;timestamp;temperature;humidity
11647;DHT22;5880;52.342;9.662;2023-09-19T00:00:45;20.60;62.40
11647;DHT22;5880;52.342;9.662;2023-09-19T00:03:15;20.70;62.60
11647;DHT22;5880;52.342;9.662;2023-09-19T00:05:41;20.70;62.50
11647;DHT22;5880;52.342;9.662;2023-09-19T00:08:09;20.70;62.50
11647;DHT22;5880;52.342;9.662;2023-09-19T00:10:35;20.70;62.40
11647;DHT22;5880;52.342;9.662;2023-09-19T00:13:02;20.70;62.60
11647;DHT22;5880;52.342;9.662;2023-09-19T00:15:38;20.70;62.70
11647;DHT22;5880;52.342;9.662;2023-09-19T00:18:06;20.70;62.80
11647;DHT22;5880;52.342;9.662;2023-09-19T00:20:35;20.70;62.60
11647;DHT22;5880;52.342;9.662;2023-09-19T00:23:02;20.70;62.60
11647;DHT22;5880;52.342;9.662;2023-09-19T00:25:30;20.70;62.50
11647;DHT22;5880;52.342;9.662;2023-09-19T00:27:57;20.70;62.40
11647;DHT22;5880;52.342;9.662;2023-09-19T00:30:23;20.70;62.40
11647;DHT22;5880;52.342;9.662;2023-09-19T00:32:50;20.40;62.20
11647;DHT22;5880;52.342;9.662;2023-09-19T00:35:23;20.70;62.50
11647;DHT22;5880;52.342;9.662;2023-09-19T00:37:49;20.60;62.60
11647;DHT22;5880;52.342;9.662;2023-09-19T00:40:16;20.70;62.50
11647;DHT22;5880;52.342;9.662;2023-09-19T00:42:46;20.60;62.40
11647;DHT22;5880;52.342;9.662;2023-09-19T00:45:14;20.60;62.40
11647;DHT22;5880;52.342;9.662;2023-09-19T00:47:47;21.20;62.80
11647;DHT22;5880;52.342;9.662;2023-09-19T00:50:16;20.60;62.60
11647;DHT22;5880;52.342;9.662;2023-09-19T00:52:45;20.60;62.40
11647;DHT22;5880;52.342;9.662;2023-09-19T00:55:12;20.70;62.50
11647;DHT22;5880;52.342;9.662;2023-09-19T00:57:41;20.70;62.50
11647;DHT22;5880;52.342;9.662;2023-09-19T01:00:08;20.90;62.60
11647;DHT22;5880;52.342;9.662;2023-09-19T01:02:42;20.50;62.50
11647;DHT22;5880;52.342;9.662;2023-09-19T01:05:09;20.50;62.40
11647;DHT22;5880;52.342;9.662;2023-09-19T01:07:36;20.50;62.40
11647;DHT22;5880;52.342;9.662;2023-09-19T01:10:06;20.60;62.50
11647;DHT22;5880;52.342;9.662;2023-09-19T01:16:03;20.50;62.80
11647;DHT22;5880;52.342;9.662;2023-09-19T01:18:51;20.50;62.80
11647;DHT22;5880;52.342;9.662;2023-09-19T01:21:40;20.40;62.40
11647;DHT22;5880;52.342;9.662;2023-09-19T01:28:06;20.50;62.80
11647;DHT22;5880;52.342;9.662;2023-09-19T01:30:40;20.50;62.90
11647;DHT22;5880;52.342;9.662;2023-09-19T01:33:09;20.50;62.70
11647;DHT22;5880;52.342;9.662;2023-09-19T01:35:38;20.50;62.50
11647;DHT22;5880;52.342;9.662;2023-09-19T01:38:05;20.50;62.80
11647;DHT22;5880;52.342;9.662;2023-09-19T01:40:43;20.50;62.60
11647;DHT22;5880;52.342;9.662;2023-09-19T01:43:36;20.50;62.80
11647;DHT22;5880;52.342;9.662;2023-09-19T01:46:09;20.50;62.70
11647;DHT22;5880;52.342;9.662;2023-09-19T01:54:33;19.80;62.80
11647;DHT22;5880;52.342;9.662;2023-09-19T01:57:13;20.50;63.00
11647;DHT22;5880;52.342;9.662;2023-09-19T01:59:48;20.50;62.90
11647;DHT22;5880;52.342;9.662;2023-09-19T02:02:21;20.50;62.90
11647;DHT22;5880;52.342;9.662;2023-09-19T02:04:48;20.50;62.80
11647;DHT22;5880;52.342;9.662;2023-09-19T02:07:16;20.50;62.70
11647;DHT22;5880;52.342;9.662;2023-09-19T02:09:42;20.50;62.50
11647;DHT22;5880;52.342;9.662;2023-09-19T02:12:09;20.50;62.60
11647;DHT22;5880;52.342;9.662;2023-09-19T02:14:35;20.50;62.60
11647;DHT22;5880;52.342;9.662;2023-09-19T02:17:02;20.50;62.50
11647;DHT22;5880;52.342;9.662;2023-09-19T02:19:32;20.40;62.50
11647;DHT22;5880;52.342;9.662;2023-09-19T02:21:59;20.50;62.60
11647;DHT22;5880;52.342;9.662;2023-09-19T02:24:28;20.50;62.70
11647;DHT22;5880;52.342;9.662;2023-09-19T02:26:54;20.40;62.60
11647;DHT22;5880;52.342;9.662;2023-09-19T02:29:21;20.50;62.70
11647;DHT22;5880;52.342;9.662;2023-09-19T02:31:47;20.40;62.60
11647;DHT22;5880;52.342;9.662;2023-09-19T02:34:13;20.40;62.60
11647;DHT22;5880;52.342;9.662;2023-09-19T02:36:41;20.30;62.70
11647;DHT22;5880;52.342;9.662;2023-09-19T02:39:09;20.30;62.80
11647;DHT22;5880;52.342;9.662;2023-09-19T02:41:36;20.30;62.80
11647;DHT22;5880;52.342;9.662;2023-09-19T02:44:02;20.20;62.90
11647;DHT22;5880;52.342;9.662;2023-09-19T02:46:28;20.20;62.80
11647;DHT22;5880;52.342;9.662;2023-09-19T02:48:53;20.20;62.80
11647;DHT22;5880;52.342;9.662;2023-09-19T02:51:20;20.30;62.90
11647;DHT22;5880;52.342;9.662;2023-09-19T02:53:46;20.20;62.70
11647;DHT22;5880;52.342;9.662;2023-09-19T02:56:13;20.10;62.60
11647;DHT22;5880;52.342;9.662;2023-09-19T02:58:39;20.10;62.80
11647;DHT22;5880;52.342;9.662;2023-09-19T03:01:10;20.20;62.80
11647;DHT22;5880;52.342;9.662;2023-09-19T03:03:40;20.10;62.80
11647;DHT22;5880;52.342;9.662;2023-09-19T03:06:06;20.00;62.70
11647;DHT22;5880;52.342;9.662;2023-09-19T03:08:34;20.10;63.00
11647;DHT22;5880;52.342;9.662;2023-09-19T03:11:05;20.00;62.90
11647;DHT22;5880;52.342;9.662;2023-09-19T03:13:32;20.00;63.10
11647;DHT22;5880;52.342;9.662;2023-09-19T03:15:58;19.90;62.90
11647;DHT22;5880;52.342;9.662;2023-09-19T03:18:24;20.00;62.90
11647;DHT22;5880;52.342;9.662;2023-09-19T03:20:55;19.90;63.00
11647;DHT22;5880;52.342;9.662;2023-09-19T03:23:22;19.90;63.00
11647;DHT22;5880;52.342;9.662;2023-09-19T03:25:48;19.90;62.90
11647;DHT22;5880;52.342;9.662;2023-09-19T03:28:14;19.80;62.70
11647;DHT22;5880;52.342;9.662;2023-09-19T03:30:41;19.80;62.90
11647;DHT22;5880;52.342;9.662;2023-09-19T03:33:07;19.80;63.00
11647;DHT22;5880;52.342;9.662;2023-09-19T03:35:33;19.80;62.80
11647;DHT22;5880;52.342;9.662;2023-09-19T03:38:00;19.80;62.90
11647;DHT22;5880;52.342;9.662;2023-09-19T03:40:25;19.70;62.90
11647;DHT22;5880;52.342;9.662;2023-09-19T03:42:51;19.70;62.90
11647;DHT22;5880;52.342;9.662;2023-09-19T03:45:17;19.60;62.90
11647;DHT22;5880;52.342;9.662;2023-09-19T03:47:43;19.60;62.80
11647;DHT22;5880;52.342;9.662;2023-09-19T03:50:09;19.00;62.70
11647;DHT22;5880;52.342;9.662;2023-09-19T03:52:40;19.60;63.20
11647;DHT22;5880;52.342;9.662;2023-09-19T03:55:06;19.60;63.00
11647;DHT22;5880;52.342;9.662;2023-09-19T03:57:32;19.50;63.20
11647;DHT22;5880;52.342;9.662;2023-09-19T04:00:00;19.60;63.30
11647;DHT22;5880;52.342;9.662;2023-09-19T04:02:25;19.50;63.30
11647;DHT22;5880;52.342;9.662;2023-09-19T04:04:51;19.50;63.30
11647;DHT22;5880;52.342;9.662;2023-09-19T04:07:17;19.50;63.20
11647;DHT22;5880;52.342;9.662;2023-09-19T04:09:48;19.50;63.30
11647;DHT22;5880;52.342;9.662;2023-09-19T04:12:14;19.50;63.20
11647;DHT22;5880;52.342;9.662;2023-09-19T04:14:42;19.60;63.10
11647;DHT22;5880;52.342;9.662;2023-09-19T04:17:08;19.60;63.10
11647;DHT22;5880;52.342;9.662;2023-09-19T04:19:35;19.50;63.00
11647;DHT22;5880;52.342;9.662;2023-09-19T04:22:01;19.50;63.10
11647;DHT22;5880;52.342;9.662;2023-09-19T04:24:27;19.50;63.20
11647;DHT22;5880;52.342;9.662;2023-09-19T04:26:52;19.50;63.00
11647;DHT22;5880;52.342;9.662;2023-09-19T04:29:18;19.50;63.10
11647;DHT22;5880;52.342;9.662;2023-09-19T04:31:44;19.40;62.90
11647;DHT22;5880;52.342;9.662;2023-09-19T04:34:11;19.50;63.10
11647;DHT22;5880;52.342;9.662;2023-09-19T04:36:41;19.40;62.90
11647;DHT22;5880;52.342;9.662;2023-09-19T04:39:07;19.50;62.90
11647;DHT22;5880;52.342;9.662;2023-09-19T04:41:33;19.40;62.90
11647;DHT22;5880;52.342;9.662;2023-09-19T04:43:59;19.40;62.90
11647;DHT22;5880;52.342;9.662;2023-09-19T04:46:25;19.40;62.80
11647;DHT22;5880;52.342;9.662;2023-09-19T04:48:51;19.30;62.70
11647;DHT22;5880;52.342;9.662;2023-09-19T04:51:17;19.50;62.90
11647;DHT22;5880;52.342;9.662;2023-09-19T04:53:44;19.90;63.10
11647;DHT22;5880;52.342;9.662;2023-09-19T04:56:09;19.30;62.80
11647;DHT22;5880;52.342;9.662;2023-09-19T04:58:35;19.30;62.70
11647;DHT22;5880;52.342;9.662;2023-09-19T05:01:01;19.30;62.70
11647;DHT22;5880;52.342;9.662;2023-09-19T05:03:27;19.30;62.90
11647;DHT22;5880;52.342;9.662;2023-09-19T05:05:53;19.30;63.00
11647;DHT22;5880;52.342;9.662;2023-09-19T05:08:18;19.30;63.20
11647;DHT22;5880;52.342;9.662;2023-09-19T05:10:44;19.40;63.10
11647;DHT22;5880;52.342;9.662;2023-09-19T05:13:10;19.20;63.00
11647;DHT22;5880;52.342;9.662;2023-09-19T05:15:37;19.30;63.10
11647;DHT22;5880;52.342;9.662;2023-09-19T05:18:03;19.20;63.20
11647;DHT22;5880;52.342;9.662;2023-09-19T05:20:29;19.20;63.10
11647;DHT22;5880;52.342;9.662;2023-09-19T05:23:05;19.20;63.20
11647;DHT22;5880;52.342;9.662;2023-09-19T05:25:38;19.20;63.80
11647;DHT22;5880;52.342;9.662;2023-09-19T05:28:09;19.20;63.10
11647;DHT22;5880;52.342;9.662;2023-09-19T05:30:37;19.20;63.10
11647;DHT22;5880;52.342;9.662;2023-09-19T05:33:04;19.20;62.80
11647;DHT22;5880;52.342;9.662;2023-09-19T05:35:31;19.20;62.70
11647;DHT22;5880;52.342;9.662;2023-09-19T05:37:57;19.10;62.80
11647;DHT22;5880;52.342;9.662;2023-09-19T05:40:24;19.80;62.80
11647;DHT22;5880;52.342;9.662;2023-09-19T05:42:51;19.10;62.40
11647;DHT22;5880;52.342;9.662;2023-09-19T05:45:17;19.20;62.50
11647;DHT22;5880;52.342;9.662;2023-09-19T05:47:51;19.10;62.40
11647;DHT22;5880;52.342;9.662;2023-09-19T05:50:21;19.10;62.10
11647;DHT22;5880;52.342;9.662;2023-09-19T05:52:53;19.10;62.10
11647;DHT22;5880;52.342;9.662;2023-09-19T05:55:21;19.10;62.30
11647;DHT22;5880;52.342;9.662;2023-09-19T05:57:51;19.30;62.30
11647;DHT22;5880;52.342;9.662;2023-09-19T06:00:22;19.10;62.40
11647;DHT22;5880;52.342;9.662;2023-09-19T06:02:52;19.10;62.60
11647;DHT22;5880;52.342;9.662;2023-09-19T06:05:23;19.10;62.70
11647;DHT22;5880;52.342;9.662;2023-09-19T06:07:53;19.20;62.80
11647;DHT22;5880;52.342;9.662;2023-09-19T06:10:19;19.10;63.00
11647;DHT22;5880;52.342;9.662;2023-09-19T06:12:48;19.10;63.10
11647;DHT22;5880;52.342;9.662;2023-09-19T06:15:15;19.20;63.30
11647;DHT22;5880;52.342;9.662;2023-09-19T06:17:48;19.20;63.60
11647;DHT22;5880;52.342;9.662;2023-09-19T06:20:14;19.20;63.50
11647;DHT22;5880;52.342;9.662;2023-09-19T06:22:41;19.30;63.50
11647;DHT22;5880;52.342;9.662;2023-09-19T06:25:09;19.40;63.40
11647;DHT22;5880;52.342;9.662;2023-09-19T06:27:40;19.40;63.40
11647;DHT22;5880;52.342;9.662;2023-09-19T06:30:09;19.50;63.10
11647;DHT22;5880;52.342;9.662;2023-09-19T06:32:36;20.40;63.60
11647;DHT22;5880;52.342;9.662;2023-09-19T06:35:02;19.60;63.00
11647;DHT22;5880;52.342;9.662;2023-09-19T06:37:29;19.70;63.00
11647;DHT22;5880;52.342;9.662;2023-09-19T06:39:55;19.80;63.00
11647;DHT22;5880;52.342;9.662;2023-09-19T06:42:22;19.90;63.30
11647;DHT22;5880;52.342;9.662;2023-09-19T06:44:49;19.90;63.40
11647;DHT22;5880;52.342;9.662;2023-09-19T06:47:14;20.10;63.20
11647;DHT22;5880;52.342;9.662;2023-09-19T06:49:41;20.10;63.30
11647;DHT22;5880;52.342;9.662;2023-09-19T06:52:09;20.30;64.00
11647;DHT22;5880;52.342;9.662;2023-09-19T06:54:35;20.50;64.70
11647;DHT22;5880;52.342;9.662;2023-09-19T06:57:01;20.80;65.30
11647;DHT22;5880;52.342;9.662;2023-09-19T06:59:27;21.10;66.20
11647;DHT22;5880;52.342;9.662;2023-09-19T07:01:53;21.40;66.40
11647;DHT22;5880;52.342;9.662;2023-09-19T07:04:18;21.80;66.40
11647;DHT22;5880;52.342;9.662;2023-09-19T07:06:50;22.20;65.80
11647;DHT22;5880;52.342;9.662;2023-09-19T07:09:16;22.70;64.00
11647;DHT22;5880;52.342;9.662;2023-09-19T07:11:42;23.00;64.00
11647;DHT22;5880;52.342;9.662;2023-09-19T07:14:08;23.20;62.10
11647;DHT22;5880;52.342;9.662;2023-09-19T07:16:37;23.50;61.90
11647;DHT22;5880;52.342;9.662;2023-09-19T07:19:05;23.70;61.30
11647;DHT22;5880;52.342;9.662;2023-09-19T07:21:30;23.90;60.90
11647;DHT22;5880;52.342;9.662;2023-09-19T07:23:59;24.10;60.40
11647;DHT22;5880;52.342;9.662;2023-09-19T07:26:29;24.30;59.60
11647;DHT22;5880;52.342;9.662;2023-09-19T07:28:55;24.40;58.50
11647;DHT22;5880;52.342;9.662;2023-09-19T07:31:22;24.60;58.50
11647;DHT22;5880;52.342;9.662;2023-09-19T07:33:49;24.80;58.00
11647;DHT22;5880;52.342;9.662;2023-09-19T07:36:14;24.90;58.10
11647;DHT22;5880;52.342;9.662;2023-09-19T07:38:41;25.10;57.50
11647;DHT22;5880;52.342;9.662;2023-09-19T07:41:08;25.30;56.80
11647;DHT22;5880;52.342;9.662;2023-09-19T07:43:35;25.40;55.20
11647;DHT22;5880;52.342;9.662;2023-09-19T07:46:06;25.50;53.90
11647;DHT22;5880;52.342;9.662;2023-09-19T07:48:33;25.40;53.10
11647;DHT22;5880;52.342;9.662;2023-09-19T07:51:05;25.30;51.80
11647;DHT22;5880;52.342;9.662;2023-09-19T07:53:33;25.10;50.30
11647;DHT22;5880;52.342;9.662;2023-09-19T07:56:07;24.80;51.00
11647;DHT22;5880;52.342;9.662;2023-09-19T07:58:35;24.60;50.60
11647;DHT22;5880;52.342;9.662;2023-09-19T08:01:06;24.30;50.90
11647;DHT22;5880;52.342;9.662;2023-09-19T08:03:33;24.00;50.30
11647;DHT22;5880;52.342;9.662;2023-09-19T08:06:00;23.70;51.20
11647;DHT22;5880;52.342;9.662;2023-09-19T08:08:27;23.50;51.70
11647;DHT22;5880;52.342;9.662;2023-09-19T08:10:56;23.30;51.90
11647;DHT22;5880;52.342;9.662;2023-09-19T08:13:26;23.10;51.90
11647;DHT22;5880;52.342;9.662;2023-09-19T08:15:52;23.00;51.20
11647;DHT22;5880;52.342;9.662;2023-09-19T08:18:20;22.80;52.10
11647;DHT22;5880;52.342;9.662;2023-09-19T08:20:50;22.60;52.60
11647;DHT22;5880;52.342;9.662;2023-09-19T08:23:17;22.50;52.50
11647;DHT22;5880;52.342;9.662;2023-09-19T08:25:45;22.50;53.00
11647;DHT22;5880;52.342;9.662;2023-09-19T08:28:12;22.40;53.30
11647;DHT22;5880;52.342;9.662;2023-09-19T08:30:39;22.30;53.60
11647;DHT22;5880;52.342;9.662;2023-09-19T08:33:06;22.20;53.40
11647;DHT22;5880;52.342;9.662;2023-09-19T08:35:33;22.20;53.60
11647;DHT22;5880;52.342;9.662;2023-09-19T08:37:59;22.30;53.90
11647;DHT22;5880;52.342;9.662;2023-09-19T08:40:30;22.10;53.70
11647;DHT22;5880;52.342;9.662;2023-09-19T08:42:58;22.20;53.40
11647;DHT22;5880;52.342;9.662;2023-09-19T08:45:25;22.20;53.70
11647;DHT22;5880;52.342;9.662;2023-09-19T08:48:23;22.30;54.30
11647;DHT22;5880;52.342;9.662;2023-09-19T08:54:16;22.20;53.80
11647;DHT22;5880;52.342;9.662;2023-09-19T08:56:47;22.20;53.80
11647;DHT22;5880;52.342;9.662;2023-09-19T08:59:15;22.20;54.80
11647;DHT22;5880;52.342;9.662;2023-09-19T09:01:44;22.40;54.20
11647;DHT22;5880;52.342;9.662;2023-09-19T09:04:11;22.50;55.20
11647;DHT22;5880;52.342;9.662;2023-09-19T09:06:38;22.40;54.50
11647;DHT22;5880;52.342;9.662;2023-09-19T09:09:06;22.50;54.40
11647;DHT22;5880;52.342;9.662;2023-09-19T09:11:33;22.60;54.60
11647;DHT22;5880;52.342;9.662;2023-09-19T09:13:59;22.70;54.30
11647;DHT22;5880;52.342;9.662;2023-09-19T09:16:24;22.80;53.90
11647;DHT22;5880;52.342;9.662;2023-09-19T09:18:51;22.90;54.10
11647;DHT22;5880;52.342;9.662;2023-09-19T09:21:21;23.00;54.50
11647;DHT22;5880;52.342;9.662;2023-09-19T09:23:50;23.10;54.10
11647;DHT22;5880;52.342;9.662;2023-09-19T09:26:17;23.20;55.00
11647;DHT22;5880;52.342;9.662;2023-09-19T09:28:45;23.30;54.40
11647;DHT22;5880;52.342;9.662;2023-09-19T09:31:23;23.50;54.90
11647;DHT22;5880;52.342;9.662;2023-09-19T09:33:56;23.70;54.60
11647;DHT22;5880;52.342;9.662;2023-09-19T09:36:34;24.00;54.40
11647;DHT22;5880;52.342;9.662;2023-09-19T09:39:02;24.10;51.50
11647;DHT22;5880;52.342;9.662;2023-09-19T09:41:41;24.20;53.20
11647;DHT22;5880;52.342;9.662;2023-09-19T09:44:16;24.30;53.10
11647;DHT22;5880;52.342;9.662;2023-09-19T09:46:47;24.50;52.40
11647;DHT22;5880;52.342;9.662;2023-09-19T09:49:26;24.50;52.50
11647;DHT22;5880;52.342;9.662;2023-09-19T09:52:07;24.50;49.70
11647;DHT22;5880;52.342;9.662;2023-09-19T09:55:01;24.50;50.20
11647;DHT22;5880;52.342;9.662;2023-09-19T09:57:33;24.50;49.70
11647;DHT22;5880;52.342;9.662;2023-09-19T10:00:00;24.50;50.90
11647;DHT22;5880;52.342;9.662;2023-09-19T10:02:39;24.40;50.90
11647;DHT22;5880;52.342;9.662;2023-09-19T10:05:19;24.40;50.50
11647;DHT22;5880;52.342;9.662;2023-09-19T10:07:46;24.30;49.50
11647;DHT22;5880;52.342;9.662;2023-09-19T10:10:15;24.40;50.90
11647;DHT22;5880;52.342;9.662;2023-09-19T10:13:08;24.40;52.10
11647;DHT22;5880;52.342;9.662;2023-09-19T10:15:42;24.40;52.10
11647;DHT22;5880;52.342;9.662;2023-09-19T10:18:15;24.50;50.80
11647;DHT22;5880;52.342;9.662;2023-09-19T10:20:46;24.50;50.00
11647;DHT22;5880;52.342;9.662;2023-09-19T10:23:15;24.60;49.30
11647;DHT22;5880;52.342;9.662;2023-09-19T10:25:48;24.60;50.10
11647;DHT22;5880;52.342;9.662;2023-09-19T10:28:16;24.50;48.70
11647;DHT22;5880;52.342;9.662;2023-09-19T10:30:48;24.50;49.40
11647;DHT22;5880;52.342;9.662;2023-09-19T10:33:20;24.40;47.90
11647;DHT22;5880;52.342;9.662;2023-09-19T10:35:48;24.30;47.40
11647;DHT22;5880;52.342;9.662;2023-09-19T10:38:23;24.20;46.60
11647;DHT22;5880;52.342;9.662;2023-09-19T10:40:51;24.00;46.50
11647;DHT22;5880;52.342;9.662;2023-09-19T10:43:20;23.90;47.30
11647;DHT22;5880;52.342;9.662;2023-09-19T10:45:48;23.90;47.80
11647;DHT22;5880;52.342;9.662;2023-09-19T10:48:16;23.70;48.70
11647;DHT22;5880;52.342;9.662;2023-09-19T10:51:07;23.60;49.10
11647;DHT22;5880;52.342;9.662;2023-09-19T10:56:36;23.50;48.10
11647;DHT22;5880;52.342;9.662;2023-09-19T10:59:16;23.50;48.90
11647;DHT22;5880;52.342;9.662;2023-09-19T11:04:33;23.40;48.40
11647;DHT22;5880;52.342;9.662;2023-09-19T11:07:10;23.40;46.40
11647;DHT22;5880;52.342;9.662;2023-09-19T11:15:03;23.30;47.10
11647;DHT22;5880;52.342;9.662;2023-09-19T11:17:41;23.20;48.30
11647;DHT22;5880;52.342;9.662;2023-09-19T11:30:38;23.20;48.70
11647;DHT22;5880;52.342;9.662;2023-09-19T11:35:59;23.20;47.30
11647;DHT22;5880;52.342;9.662;2023-09-19T11:43:50;23.20;46.60
11647;DHT22;5880;52.342;9.662;2023-09-19T11:46:27;23.10;47.30
11647;DHT22;5880;52.342;9.662;2023-09-19T11:48:54;23.20;47.70
11647;DHT22;5880;52.342;9.662;2023-09-19T11:51:23;23.20;48.90
11647;DHT22;5880;52.342;9.662;2023-09-19T11:53:54;23.10;48.10
11647;DHT22;5880;52.342;9.662;2023-09-19T11:56:23;23.10;47.90
11647;DHT22;5880;52.342;9.662;2023-09-19T11:58:53;23.10;48.60
11647;DHT22;5880;52.342;9.662;2023-09-19T12:01:30;23.10;48.10
11647;DHT22;5880;52.342;9.662;2023-09-19T12:03:58;23.10;47.90
11647;DHT22;5880;52.342;9.662;2023-09-19T12:06:26;23.20;48.10
11647;DHT22;5880;52.342;9.662;2023-09-19T12:08:55;23.20;47.90
11647;DHT22;5880;52.342;9.662;2023-09-19T12:11:23;23.20;48.10
11647;DHT22;5880;52.342;9.662;2023-09-19T12:13:52;23.40;47.80
11647;DHT22;5880;52.342;9.662;2023-09-19T12:16:22;23.20;47.30
11647;DHT22;5880;52.342;9.662;2023-09-19T12:18:48;23.20;46.10
11647;DHT22;5880;52.342;9.662;2023-09-19T12:21:41;23.20;47.30
11647;DHT22;5880;52.342;9.662;2023-09-19T12:24:12;23.30;47.20
11647;DHT22;5880;52.342;9.662;2023-09-19T12:26:46;23.10;48.80
11647;DHT22;5880;52.342;9.662;2023-09-19T12:29:21;23.10;49.20
11647;DHT22;5880;52.342;9.662;2023-09-19T12:34:20;23.20;48.40
11647;DHT22;5880;52.342;9.662;2023-09-19T12:36:48;23.20;49.20
11647;DHT22;5880;52.342;9.662;2023-09-19T12:39:26;23.20;48.90
11647;DHT22;5880;52.342;9.662;2023-09-19T12:41:52;23.20;46.60
11647;DHT22;5880;52.342;9.662;2023-09-19T12:44:20;23.20;47.90
11647;DHT22;5880;52.342;9.662;2023-09-19T12:46:46;23.20;47.60
11647;DHT22;5880;52.342;9.662;2023-09-19T12:49:16;23.20;48.10
11647;DHT22;5880;52.342;9.662;2023-09-19T12:51:45;23.20;48.00
11647;DHT22;5880;52.342;9.662;2023-09-19T12:54:11;23.10;47.60
11647;DHT22;5880;52.342;9.662;2023-09-19T12:56:41;23.20;47.60
11647;DHT22;5880;52.342;9.662;2023-09-19T12:59:13;23.20;47.10
11647;DHT22;5880;52.342;9.662;2023-09-19T13:01:41;23.20;46.10
11647;DHT22;5880;52.342;9.662;2023-09-19T13:04:21;23.20;47.00
11647;DHT22;5880;52.342;9.662;2023-09-19T13:06:59;23.20;45.80
11647;DHT22;5880;52.342;9.662;2023-09-19T13:09:27;23.30;47.10
11647;DHT22;5880;52.342;9.662;2023-09-19T13:12:04;23.70;47.20
11647;DHT22;5880;52.342;9.662;2023-09-19T13:15:08;23.30;47.00
11647;DHT22;5880;52.342;9.662;2023-09-19T13:17:46;23.30;46.10
11647;DHT22;5880;52.342;9.662;2023-09-19T13:20:26;23.40;45.70
11647;DHT22;5880;52.342;9.662;2023-09-19T13:22:57;23.30;46.20
11647;DHT22;5880;52.342;9.662;2023-09-19T13:25:25;23.40;46.50
11647;DHT22;5880;52.342;9.662;2023-09-19T13:27:56;23.40;47.50
11647;DHT22;5880;52.342;9.662;2023-09-19T13:30:28;23.50;47.80
11647;DHT22;5880;52.342;9.662;2023-09-19T13:33:10;23.50;46.00
11647;DHT22;5880;52.342;9.662;2023-09-19T13:35:38;23.60;46.10
11647;DHT22;5880;52.342;9.662;2023-09-19T13:38:05;23.60;46.40
11647;DHT22;5880;52.342;9.662;2023-09-19T13:40:34;23.70;46.60
11647;DHT22;5880;52.342;9.662;2023-09-19T13:43:01;23.60;46.00
11647;DHT22;5880;52.342;9.662;2023-09-19T13:45:26;23.60;45.80
11647;DHT22;5880;52.342;9.662;2023-09-19T13:47:56;23.60;45.90
11647;DHT22;5880;52.342;9.662;2023-09-19T13:50:22;23.70;46.10
11647;DHT22;5880;52.342;9.662;2023-09-19T13:52:50;23.70;46.70
11647;DHT22;5880;52.342;9.662;2023-09-19T13:55:19;23.80;46.80
11647;DHT22;5880;52.342;9.662;2023-09-19T13:57:49;23.70;46.10
11647;DHT22;5880;52.342;9.662;2023-09-19T14:00:22;23.80;45.00
11647;DHT22;5880;52.342;9.662;2023-09-19T14:02:48;23.80;45.00
11647;DHT22;5880;52.342;9.662;2023-09-19T14:05:15;23.80;45.50
11647;DHT22;5880;52.342;9.662;2023-09-19T14:07:45;23.80;44.80
11647;DHT22;5880;52.342;9.662;2023-09-19T14:10:13;23.80;44.00
11647;DHT22;5880;52.342;9.662;2023-09-19T14:12:40;23.80;44.60
11647;DHT22;5880;52.342;9.662;2023-09-19T14:15:10;23.80;44.40
11647;DHT22;5880;52.342;9.662;2023-09-19T14:17:37;23.80;44.60
11647;DHT22;5880;52.342;9.662;2023-09-19T14:20:03;23.80;44.80
11647;DHT22;5880;52.342;9.662;2023-09-19T14:22:31;23.70;44.30
11647;DHT22;5880;52.342;9.662;2023-09-19T14:24:58;23.70;45.30
11647;DHT22;5880;52.342;9.662;2023-09-19T14:27:25;23.80;45.20
11647;DHT22;5880;52.342;9.662;2023-09-19T14:29:50;23.90;45.20
11647;DHT22;5880;52.342;9.662;2023-09-19T14:32:16;23.90;45.00
11647;DHT22;5880;52.342;9.662;2023-09-19T14:34:43;23.90;45.00
11647;DHT22;5880;52.342;9.662;2023-09-19T14:37:10;23.80;44.60
11647;DHT22;5880;52.342;9.662;2023-09-19T14:39:37;23.80;43.80
11647;DHT22;5880;52.342;9.662;2023-09-19T14:42:05;23.80;44.10
11647;DHT22;5880;52.342;9.662;2023-09-19T14:44:31;23.70;43.90
11647;DHT22;5880;52.342;9.662;2023-09-19T14:46:56;23.70;44.10
11647;DHT22;5880;52.342;9.662;2023-09-19T14:49:22;23.60;43.70
11647;DHT22;5880;52.342;9.662;2023-09-19T14:51:48;23.70;43.70
11647;DHT22;5880;52.342;9.662;2023-09-19T14:54:14;23.50;43.70
11647;DHT22;5880;52.342;9.662;2023-09-19T14:56:42;23.40;43.50
11647;DHT22;5880;52.342;9.662;2023-09-19T14:59:08;23.40;43.50
11647;DHT22;5880;52.342;9.662;2023-09-19T15:01:36;23.30;43.70
11647;DHT22;5880;52.342;9.662;2023-09-19T15:04:02;23.30;44.10
11647;DHT22;5880;52.342;9.662;2023-09-19T15:06:28;23.30;44.50
11647;DHT22;5880;52.342;9.662;2023-09-19T15:08:54;23.30;44.10
11647;DHT22;5880;52.342;9.662;2023-09-19T15:11:20;23.20;44.10
11647;DHT22;5880;52.342;9.662;2023-09-19T15:13:47;23.80;44.80
11647;DHT22;5880;52.342;9.662;2023-09-19T15:16:15;23.30;44.50
11647;DHT22;5880;52.342;9.662;2023-09-19T15:18:43;23.30;44.60
11647;DHT22;5880;52.342;9.662;2023-09-19T15:21:11;23.30;44.50
11647;DHT22;5880;52.342;9.662;2023-09-19T15:23:38;23.40;44.90
11647;DHT22;5880;52.342;9.662;2023-09-19T15:26:07;23.40;44.50
11647;DHT22;5880;52.342;9.662;2023-09-19T15:28:34;23.40;44.70
11647;DHT22;5880;52.342;9.662;2023-09-19T15:31:05;23.40;45.40
11647;DHT22;5880;52.342;9.662;2023-09-19T15:33:32;23.50;44.70
11647;DHT22;5880;52.342;9.662;2023-09-19T15:36:11;23.50;44.90
11647;DHT22;5880;52.342;9.662;2023-09-19T15:41:28;23.60;43.60
11647;DHT22;5880;52.342;9.662;2023-09-19T15:44:03;23.60;44.70
11647;DHT22;5880;52.342;9.662;2023-09-19T15:46:33;23.50;44.10
11647;DHT22;5880;52.342;9.662;2023-09-19T15:49:00;23.50;43.70
11647;DHT22;5880;52.342;9.662;2023-09-19T15:51:26;23.50;44.30
11647;DHT22;5880;52.342;9.662;2023-09-19T15:53:55;23.50;44.10
11647;DHT22;5880;52.342;9.662;2023-09-19T15:56:22;23.40;43.90
11647;DHT22;5880;52.342;9.662;2023-09-19T15:58:53;23.40;44.00
11647;DHT22;5880;52.342;9.662;2023-09-19T16:01:21;23.30;43.90
11647;DHT22;5880;52.342;9.662;2023-09-19T16:03:52;23.40;44.20
11647;DHT22;5880;52.342;9.662;2023-09-19T16:06:21;23.20;43.90
11647;DHT22;5880;52.342;9.662;2023-09-19T16:08:56;23.20;44.00
11647;DHT22;5880;52.342;9.662;2023-09-19T16:11:24;23.20;43.90
11647;DHT22;5880;52.342;9.662;2023-09-19T16:13:51;23.10;44.10
11647;DHT22;5880;52.342;9.662;2023-09-19T16:16:19;23.10;44.20
11647;DHT22;5880;52.342;9.662;2023-09-19T16:18:50;23.10;44.30
11647;DHT22;5880;52.342;9.662;2023-09-19T16:21:26;23.00;44.20
11647;DHT22;5880;52.342;9.662;2023-09-19T16:23:53;23.00;44.50
11647;DHT22;5880;52.342;9.662;2023-09-19T16:26:21;23.00;44.40
11647;DHT22;5880;52.342;9.662;2023-09-19T16:28:54;23.00;44.40
11647;DHT22;5880;52.342;9.662;2023-09-19T16:31:28;23.00;44.00
11647;DHT22;5880;52.342;9.662;2023-09-19T16:33:55;23.00;44.40
11647;DHT22;5880;52.342;9.662;2023-09-19T16:36:24;23.00;44.50
11647;DHT22;5880;52.342;9.662;2023-09-19T16:38:50;22.90;44.40
11647;DHT22;5880;52.342;9.662;2023-09-19T16:41:17;22.80;44.60
11647;DHT22;5880;52.342;9.662;2023-09-19T16:43:47;22.80;44.60
11647;DHT22;5880;52.342;9.662;2023-09-19T16:46:13;22.80;44.50
11647;DHT22;5880;52.342;9.662;2023-09-19T16:48:43;22.80;44.80